sensor_id;sensor_type;location;lat;lon;timestamp;P1;durP1;ratioP1;P2;durP2;ratioP2
44248;SDS011;29923;48.718;9.272;2023-01-08T00:00:48;25.80;;;13.00;;
44248;SDS011;29923;48.718;9.272;2023-01-08T00:03:14;17.77;;;11.68;;
44248;SDS011;29923;48.718;9.272;2023-01-08T00:05:39;23.10;;;13.50;;
44248;SDS011;29923;48.718;9.272;2023-01-08T00:08:05;27.52;;;14.98;;
44248;SDS011;29923;48.718;9.272;2023-01-08T00:10:32;23.75;;;14.15;;
44248;SDS011;29923;48.718;9.272;2023-01-08T00:12:58;24.73;;;13.95;;
44248;SDS011;29923;48.718;9.272;2023-01-08T00:15:23;21.33;;;13.38;;
44248;SDS011;29923;48.718;9.272;2023-01-08T00:17:49;19.17;;;12.55;;
44248;SDS011;29923;48.718;9.272;2023-01-08T00:20:14;19.67;;;11.98;;
44248;SDS011;29923;48.718;9.272;2023-01-08T00:22:39;20.85;;;12.35;;
44248;SDS011;29923;48.718;9.272;2023-01-08T00:25:05;20.75;;;12.82;;
44248;SDS011;29923;48.718;9.272;2023-01-08T00:27:31;20.85;;;12.68;;
44248;SDS011;29923;48.718;9.272;2023-01-08T00:29:56;21.67;;;12.55;;
44248;SDS011;29923;48.718;9.272;2023-01-08T00:32:21;17.08;;;12.40;;
44248;SDS011;29923;48.718;9.272;2023-01-08T00:34:47;22.55;;;11.85;;
44248;SDS011;29923;48.718;9.272;2023-01-08T00:37:12;18.60;;;12.13;;
44248;SDS011;29923;48.718;9.272;2023-01-08T00:39:38;17.23;;;11.82;;
44248;SDS011;29923;48.718;9.272;2023-01-08T00:42:03;17.83;;;11.38;;
44248;SDS011;29923;48.718;9.272;2023-01-08T00:44:29;21.33;;;12.55;;
44248;SDS011;29923;48.718;9.272;2023-01-08T00:46:54;22.05;;;14.35;;
44248;SDS011;29923;48.718;9.272;2023-01-08T00:49:19;22.02;;;15.05;;
44248;SDS011;29923;48.718;9.272;2023-01-08T00:51:45;21.08;;;12.43;;
44248;SDS011;29923;48.718;9.272;2023-01-08T00:54:10;19.55;;;13.50;;
44248;SDS011;29923;48.718;9.272;2023-01-08T00:56:36;17.98;;;12.00;;
44248;SDS011;29923;48.718;9.272;2023-01-08T00:59:01;20.05;;;13.32;;
44248;SDS011;29923;48.718;9.272;2023-01-08T01:01:26;17.58;;;12.23;;
44248;SDS011;29923;48.718;9.272;2023-01-08T01:03:52;19.17;;;12.65;;
44248;SDS011;29923;48.718;9.272;2023-01-08T01:06:17;21.15;;;13.57;;
44248;SDS011;29923;48.718;9.272;2023-01-08T01:08:43;21.35;;;13.27;;
44248;SDS011;29923;48.718;9.272;2023-01-08T01:11:09;20.13;;;11.75;;
44248;SDS011;29923;48.718;9.272;2023-01-08T01:13:36;19.40;;;12.27;;
44248;SDS011;29923;48.718;9.272;2023-01-08T01:16:02;19.40;;;11.80;;
44248;SDS011;29923;48.718;9.272;2023-01-08T01:18:28;20.00;;;13.30;;
44248;SDS011;29923;48.718;9.272;2023-01-08T01:20:54;19.73;;;11.88;;
44248;SDS011;29923;48.718;9.272;2023-01-08T01:23:19;18.20;;;11.70;;
44248;SDS011;29923;48.718;9.272;2023-01-08T01:25:45;20.77;;;12.52;;
44248;SDS011;29923;48.718;9.272;2023-01-08T01:28:10;20.77;;;13.07;;
44248;SDS011;29923;48.718;9.272;2023-01-08T01:30:36;29.20;;;13.85;;
44248;SDS011;29923;48.718;9.272;2023-01-08T01:33:01;21.33;;;12.60;;
44248;SDS011;29923;48.718;9.272;2023-01-08T01:35:27;19.35;;;13.52;;
44248;SDS011;29923;48.718;9.272;2023-01-08T01:37:52;19.00;;;12.63;;
44248;SDS011;29923;48.718;9.272;2023-01-08T01:40:17;19.45;;;12.60;;
44248;SDS011;29923;48.718;9.272;2023-01-08T01:42:43;19.02;;;12.93;;
44248;SDS011;29923;48.718;9.272;2023-01-08T01:45:21;22.88;;;13.40;;
44248;SDS011;29923;48.718;9.272;2023-01-08T01:47:48;21.73;;;12.95;;
44248;SDS011;29923;48.718;9.272;2023-01-08T01:50:22;21.92;;;13.68;;
44248;SDS011;29923;48.718;9.272;2023-01-08T01:53:02;19.90;;;13.13;;
44248;SDS011;29923;48.718;9.272;2023-01-08T01:55:33;19.23;;;12.05;;
44248;SDS011;29923;48.718;9.272;2023-01-08T01:58:04;17.85;;;12.02;;
44248;SDS011;29923;48.718;9.272;2023-01-08T02:00:32;17.23;;;11.50;;
44248;SDS011;29923;48.718;9.272;2023-01-08T02:02:59;19.83;;;10.77;;
44248;SDS011;29923;48.718;9.272;2023-01-08T02:05:25;16.25;;;10.10;;
44248;SDS011;29923;48.718;9.272;2023-01-08T02:08:03;18.48;;;10.65;;
44248;SDS011;29923;48.718;9.272;2023-01-08T02:10:36;22.95;;;12.18;;
44248;SDS011;29923;48.718;9.272;2023-01-08T02:13:09;17.33;;;11.13;;
44248;SDS011;29923;48.718;9.272;2023-01-08T02:15:50;18.83;;;11.60;;
44248;SDS011;29923;48.718;9.272;2023-01-08T02:18:46;23.83;;;14.35;;
44248;SDS011;29923;48.718;9.272;2023-01-08T02:21:28;26.40;;;15.27;;
44248;SDS011;29923;48.718;9.272;2023-01-08T02:24:08;24.42;;;15.75;;
44248;SDS011;29923;48.718;9.272;2023-01-08T02:26:38;23.25;;;15.30;;
44248;SDS011;29923;48.718;9.272;2023-01-08T02:31:39;20.15;;;12.98;;
44248;SDS011;29923;48.718;9.272;2023-01-08T02:34:06;23.83;;;13.90;;
44248;SDS011;29923;48.718;9.272;2023-01-08T02:36:36;22.40;;;15.20;;
44248;SDS011;29923;48.718;9.272;2023-01-08T02:41:46;25.95;;;12.55;;
44248;SDS011;29923;48.718;9.272;2023-01-08T02:44:22;19.88;;;12.05;;
44248;SDS011;29923;48.718;9.272;2023-01-08T02:46:56;24.50;;;12.45;;
44248;SDS011;29923;48.718;9.272;2023-01-08T02:49:26;19.08;;;11.55;;
44248;SDS011;29923;48.718;9.272;2023-01-08T02:51:54;20.00;;;12.07;;
44248;SDS011;29923;48.718;9.272;2023-01-08T02:54:23;20.50;;;12.32;;
44248;SDS011;29923;48.718;9.272;2023-01-08T02:56:52;16.33;;;11.07;;
44248;SDS011;29923;48.718;9.272;2023-01-08T02:59:21;15.50;;;10.43;;
44248;SDS011;29923;48.718;9.272;2023-01-08T03:01:48;16.83;;;11.02;;
44248;SDS011;29923;48.718;9.272;2023-01-08T03:04:18;17.45;;;10.43;;
44248;SDS011;29923;48.718;9.272;2023-01-08T03:06:44;17.50;;;10.95;;
44248;SDS011;29923;48.718;9.272;2023-01-08T03:09:10;16.52;;;10.52;;
44248;SDS011;29923;48.718;9.272;2023-01-08T03:11:47;15.43;;;10.27;;
44248;SDS011;29923;48.718;9.272;2023-01-08T03:14:22;21.40;;;10.20;;
44248;SDS011;29923;48.718;9.272;2023-01-08T03:19:27;15.35;;;9.45;;
44248;SDS011;29923;48.718;9.272;2023-01-08T03:21:56;13.43;;;8.50;;
44248;SDS011;29923;48.718;9.272;2023-01-08T03:24:26;13.95;;;8.55;;
44248;SDS011;29923;48.718;9.272;2023-01-08T03:26:55;13.70;;;8.75;;
44248;SDS011;29923;48.718;9.272;2023-01-08T03:29:21;15.48;;;9.32;;
44248;SDS011;29923;48.718;9.272;2023-01-08T03:31:48;17.52;;;9.05;;
44248;SDS011;29923;48.718;9.272;2023-01-08T03:34:14;15.02;;;9.77;;
44248;SDS011;29923;48.718;9.272;2023-01-08T03:36:40;12.73;;;8.10;;
44248;SDS011;29923;48.718;9.272;2023-01-08T03:39:16;15.00;;;8.73;;
44248;SDS011;29923;48.718;9.272;2023-01-08T03:41:44;11.77;;;8.40;;
44248;SDS011;29923;48.718;9.272;2023-01-08T03:44:10;14.90;;;8.48;;
44248;SDS011;29923;48.718;9.272;2023-01-08T03:46:46;12.73;;;8.00;;
44248;SDS011;29923;48.718;9.272;2023-01-08T03:49:13;14.63;;;7.88;;
44248;SDS011;29923;48.718;9.272;2023-01-08T03:51:42;12.95;;;8.50;;
44248;SDS011;29923;48.718;9.272;2023-01-08T03:54:10;12.60;;;8.20;;
44248;SDS011;29923;48.718;9.272;2023-01-08T03:56:43;13.27;;;8.43;;
44248;SDS011;29923;48.718;9.272;2023-01-08T03:59:10;11.75;;;8.07;;
44248;SDS011;29923;48.718;9.272;2023-01-08T04:01:36;12.52;;;8.20;;
44248;SDS011;29923;48.718;9.272;2023-01-08T04:04:01;12.50;;;8.70;;
44248;SDS011;29923;48.718;9.272;2023-01-08T04:06:27;11.93;;;8.25;;
44248;SDS011;29923;48.718;9.272;2023-01-08T04:08:52;15.95;;;9.15;;
44248;SDS011;29923;48.718;9.272;2023-01-08T04:11:18;13.40;;;9.15;;
44248;SDS011;29923;48.718;9.272;2023-01-08T04:13:43;14.85;;;8.93;;
44248;SDS011;29923;48.718;9.272;2023-01-08T04:16:09;16.20;;;9.70;;
44248;SDS011;29923;48.718;9.272;2023-01-08T04:18:34;12.77;;;9.07;;
44248;SDS011;29923;48.718;9.272;2023-01-08T04:20:59;13.60;;;8.75;;
44248;SDS011;29923;48.718;9.272;2023-01-08T04:23:25;13.43;;;8.75;;
44248;SDS011;29923;48.718;9.272;2023-01-08T04:25:51;15.00;;;9.52;;
44248;SDS011;29923;48.718;9.272;2023-01-08T04:28:16;15.88;;;9.32;;
44248;SDS011;29923;48.718;9.272;2023-01-08T04:30:42;13.38;;;8.48;;
44248;SDS011;29923;48.718;9.272;2023-01-08T04:33:07;14.15;;;8.88;;
44248;SDS011;29923;48.718;9.272;2023-01-08T04:35:33;14.52;;;10.32;;
44248;SDS011;29923;48.718;9.272;2023-01-08T04:37:58;13.85;;;8.82;;
44248;SDS011;29923;48.718;9.272;2023-01-08T04:40:23;13.25;;;9.48;;
44248;SDS011;29923;48.718;9.272;2023-01-08T04:42:49;12.38;;;8.23;;
44248;SDS011;29923;48.718;9.272;2023-01-08T04:45:14;16.63;;;9.13;;
44248;SDS011;29923;48.718;9.272;2023-01-08T04:47:40;14.50;;;9.65;;
44248;SDS011;29923;48.718;9.272;2023-01-08T04:50:05;14.88;;;8.93;;
44248;SDS011;29923;48.718;9.272;2023-01-08T04:52:31;13.57;;;8.88;;
44248;SDS011;29923;48.718;9.272;2023-01-08T04:54:56;14.95;;;9.10;;
44248;SDS011;29923;48.718;9.272;2023-01-08T04:57:21;10.60;;;7.25;;
44248;SDS011;29923;48.718;9.272;2023-01-08T04:59:47;11.35;;;7.22;;
44248;SDS011;29923;48.718;9.272;2023-01-08T05:02:12;13.40;;;8.00;;
44248;SDS011;29923;48.718;9.272;2023-01-08T05:04:38;13.88;;;9.32;;
44248;SDS011;29923;48.718;9.272;2023-01-08T05:07:03;13.80;;;9.27;;
44248;SDS011;29923;48.718;9.272;2023-01-08T05:09:28;16.27;;;9.85;;
44248;SDS011;29923;48.718;9.272;2023-01-08T05:11:54;17.15;;;9.70;;
44248;SDS011;29923;48.718;9.272;2023-01-08T05:14:19;16.58;;;9.15;;
44248;SDS011;29923;48.718;9.272;2023-01-08T05:16:44;6.72;;;3.83;;
44248;SDS011;29923;48.718;9.272;2023-01-08T05:19:10;4.35;;;2.55;;
44248;SDS011;29923;48.718;9.272;2023-01-08T05:21:35;2.85;;;2.22;;
44248;SDS011;29923;48.718;9.272;2023-01-08T05:24:01;4.03;;;1.60;;
44248;SDS011;29923;48.718;9.272;2023-01-08T05:26:26;3.53;;;1.75;;
44248;SDS011;29923;48.718;9.272;2023-01-08T05:28:51;2.45;;;0.90;;
44248;SDS011;29923;48.718;9.272;2023-01-08T05:31:17;1.67;;;0.98;;
44248;SDS011;29923;48.718;9.272;2023-01-08T05:33:42;5.38;;;1.73;;
44248;SDS011;29923;48.718;9.272;2023-01-08T05:36:08;2.03;;;1.38;;
44248;SDS011;29923;48.718;9.272;2023-01-08T05:38:35;2.83;;;1.30;;
44248;SDS011;29923;48.718;9.272;2023-01-08T05:41:01;3.25;;;1.40;;
44248;SDS011;29923;48.718;9.272;2023-01-08T05:43:26;2.97;;;1.38;;
44248;SDS011;29923;48.718;9.272;2023-01-08T05:45:51;3.15;;;1.55;;
44248;SDS011;29923;48.718;9.272;2023-01-08T05:48:17;4.10;;;1.77;;
44248;SDS011;29923;48.718;9.272;2023-01-08T05:50:42;2.65;;;1.63;;
44248;SDS011;29923;48.718;9.272;2023-01-08T05:53:08;2.45;;;1.80;;
44248;SDS011;29923;48.718;9.272;2023-01-08T05:55:34;1.55;;;1.20;;
44248;SDS011;29923;48.718;9.272;2023-01-08T05:58:03;1.17;;;0.90;;
44248;SDS011;29923;48.718;9.272;2023-01-08T06:00:30;2.08;;;1.40;;
44248;SDS011;29923;48.718;9.272;2023-01-08T06:02:56;2.50;;;1.17;;
44248;SDS011;29923;48.718;9.272;2023-01-08T06:05:21;2.53;;;1.67;;
44248;SDS011;29923;48.718;9.272;2023-01-08T06:07:46;2.92;;;1.83;;
44248;SDS011;29923;48.718;9.272;2023-01-08T06:10:12;4.35;;;1.70;;
44248;SDS011;29923;48.718;9.272;2023-01-08T06:12:37;3.38;;;1.40;;
44248;SDS011;29923;48.718;9.272;2023-01-08T06:15:03;2.40;;;1.73;;
44248;SDS011;29923;48.718;9.272;2023-01-08T06:17:29;4.43;;;1.70;;
44248;SDS011;29923;48.718;9.272;2023-01-08T06:19:55;1.60;;;1.25;;
44248;SDS011;29923;48.718;9.272;2023-01-08T06:22:20;4.13;;;1.60;;
44248;SDS011;29923;48.718;9.272;2023-01-08T06:24:45;9.00;;;7.25;;
44248;SDS011;29923;48.718;9.272;2023-01-08T06:27:11;1.95;;;1.27;;
44248;SDS011;29923;48.718;9.272;2023-01-08T06:29:36;1.95;;;1.40;;
44248;SDS011;29923;48.718;9.272;2023-01-08T06:32:01;3.55;;;1.38;;
44248;SDS011;29923;48.718;9.272;2023-01-08T06:34:30;2.95;;;1.60;;
44248;SDS011;29923;48.718;9.272;2023-01-08T06:36:55;2.63;;;1.05;;
44248;SDS011;29923;48.718;9.272;2023-01-08T06:39:20;3.38;;;1.25;;
44248;SDS011;29923;48.718;9.272;2023-01-08T06:41:46;2.45;;;1.08;;
44248;SDS011;29923;48.718;9.272;2023-01-08T06:44:11;3.33;;;1.17;;
44248;SDS011;29923;48.718;9.272;2023-01-08T06:46:37;1.08;;;0.85;;
44248;SDS011;29923;48.718;9.272;2023-01-08T06:49:07;2.95;;;0.80;;
44248;SDS011;29923;48.718;9.272;2023-01-08T06:51:33;2.63;;;1.73;;
44248;SDS011;29923;48.718;9.272;2023-01-08T06:53:59;4.35;;;1.00;;
44248;SDS011;29923;48.718;9.272;2023-01-08T06:56:24;0.80;;;0.70;;
44248;SDS011;29923;48.718;9.272;2023-01-08T06:58:49;1.80;;;0.90;;
44248;SDS011;29923;48.718;9.272;2023-01-08T07:01:15;1.85;;;0.88;;
44248;SDS011;29923;48.718;9.272;2023-01-08T07:03:41;3.15;;;2.30;;
44248;SDS011;29923;48.718;9.272;2023-01-08T07:06:07;4.45;;;2.55;;
44248;SDS011;29923;48.718;9.272;2023-01-08T07:08:38;3.35;;;2.20;;
44248;SDS011;29923;48.718;9.272;2023-01-08T07:11:04;2.13;;;1.05;;
44248;SDS011;29923;48.718;9.272;2023-01-08T07:13:29;1.10;;;0.98;;
44248;SDS011;29923;48.718;9.272;2023-01-08T07:15:54;2.15;;;0.90;;
44248;SDS011;29923;48.718;9.272;2023-01-08T07:18:20;1.27;;;0.90;;
44248;SDS011;29923;48.718;9.272;2023-01-08T07:20:47;3.00;;;0.90;;
44248;SDS011;29923;48.718;9.272;2023-01-08T07:23:12;2.80;;;1.20;;
44248;SDS011;29923;48.718;9.272;2023-01-08T07:25:38;2.30;;;0.88;;
44248;SDS011;29923;48.718;9.272;2023-01-08T07:28:03;3.05;;;1.02;;
44248;SDS011;29923;48.718;9.272;2023-01-08T07:30:29;1.80;;;1.20;;
44248;SDS011;29923;48.718;9.272;2023-01-08T07:32:58;2.60;;;1.60;;
44248;SDS011;29923;48.718;9.272;2023-01-08T07:35:24;1.23;;;0.80;;
44248;SDS011;29923;48.718;9.272;2023-01-08T07:37:50;1.65;;;1.00;;
44248;SDS011;29923;48.718;9.272;2023-01-08T07:40:15;0.73;;;0.63;;
44248;SDS011;29923;48.718;9.272;2023-01-08T07:42:40;1.88;;;0.98;;
44248;SDS011;29923;48.718;9.272;2023-01-08T07:45:06;2.00;;;1.20;;
44248;SDS011;29923;48.718;9.272;2023-01-08T07:47:32;9.18;;;4.88;;
44248;SDS011;29923;48.718;9.272;2023-01-08T07:49:57;2.10;;;1.20;;
44248;SDS011;29923;48.718;9.272;2023-01-08T07:52:22;4.90;;;1.17;;
44248;SDS011;29923;48.718;9.272;2023-01-08T07:54:48;2.17;;;0.95;;
44248;SDS011;29923;48.718;9.272;2023-01-08T07:57:13;0.93;;;0.52;;
44248;SDS011;29923;48.718;9.272;2023-01-08T07:59:39;1.85;;;0.82;;
44248;SDS011;29923;48.718;9.272;2023-01-08T08:02:04;1.60;;;0.98;;
44248;SDS011;29923;48.718;9.272;2023-01-08T08:04:29;0.95;;;0.75;;
44248;SDS011;29923;48.718;9.272;2023-01-08T08:06:55;3.05;;;1.42;;
44248;SDS011;29923;48.718;9.272;2023-01-08T08:09:20;2.20;;;1.42;;
44248;SDS011;29923;48.718;9.272;2023-01-08T08:11:46;2.88;;;1.20;;
44248;SDS011;29923;48.718;9.272;2023-01-08T08:14:11;5.20;;;1.73;;
44248;SDS011;29923;48.718;9.272;2023-01-08T08:16:36;2.60;;;1.35;;
44248;SDS011;29923;48.718;9.272;2023-01-08T08:19:02;2.47;;;1.17;;
44248;SDS011;29923;48.718;9.272;2023-01-08T08:21:27;2.22;;;0.93;;
44248;SDS011;29923;48.718;9.272;2023-01-08T08:23:53;1.73;;;1.20;;
44248;SDS011;29923;48.718;9.272;2023-01-08T08:26:19;3.47;;;1.38;;
44248;SDS011;29923;48.718;9.272;2023-01-08T08:28:44;1.75;;;1.08;;
44248;SDS011;29923;48.718;9.272;2023-01-08T08:31:10;3.72;;;1.23;;
44248;SDS011;29923;48.718;9.272;2023-01-08T08:33:35;3.40;;;1.20;;
44248;SDS011;29923;48.718;9.272;2023-01-08T08:36:00;3.00;;;1.17;;
44248;SDS011;29923;48.718;9.272;2023-01-08T08:38:26;2.60;;;1.40;;
44248;SDS011;29923;48.718;9.272;2023-01-08T08:40:51;2.25;;;1.30;;
44248;SDS011;29923;48.718;9.272;2023-01-08T08:43:16;3.35;;;1.27;;
44248;SDS011;29923;48.718;9.272;2023-01-08T08:45:42;6.22;;;1.60;;
44248;SDS011;29923;48.718;9.272;2023-01-08T08:48:07;3.50;;;1.15;;
44248;SDS011;29923;48.718;9.272;2023-01-08T08:50:33;2.05;;;1.00;;
44248;SDS011;29923;48.718;9.272;2023-01-08T08:53:00;1.45;;;1.00;;
44248;SDS011;29923;48.718;9.272;2023-01-08T08:55:26;2.50;;;1.25;;
44248;SDS011;29923;48.718;9.272;2023-01-08T08:57:52;2.75;;;0.80;;
44248;SDS011;29923;48.718;9.272;2023-01-08T09:00:17;2.22;;;1.17;;
44248;SDS011;29923;48.718;9.272;2023-01-08T09:02:43;5.85;;;4.60;;
44248;SDS011;29923;48.718;9.272;2023-01-08T09:05:08;3.22;;;1.30;;
44248;SDS011;29923;48.718;9.272;2023-01-08T09:07:34;3.80;;;1.60;;
44248;SDS011;29923;48.718;9.272;2023-01-08T09:10:01;3.67;;;1.02;;
44248;SDS011;29923;48.718;9.272;2023-01-08T09:12:26;1.70;;;1.08;;
44248;SDS011;29923;48.718;9.272;2023-01-08T09:14:52;2.55;;;1.13;;
44248;SDS011;29923;48.718;9.272;2023-01-08T09:17:19;2.45;;;1.40;;
44248;SDS011;29923;48.718;9.272;2023-01-08T09:19:45;2.03;;;1.20;;
44248;SDS011;29923;48.718;9.272;2023-01-08T09:22:11;8.30;;;1.40;;
44248;SDS011;29923;48.718;9.272;2023-01-08T09:24:36;2.97;;;1.23;;
44248;SDS011;29923;48.718;9.272;2023-01-08T09:27:02;1.83;;;1.10;;
44248;SDS011;29923;48.718;9.272;2023-01-08T09:29:27;1.77;;;1.30;;
44248;SDS011;29923;48.718;9.272;2023-01-08T09:31:52;3.28;;;1.60;;
44248;SDS011;29923;48.718;9.272;2023-01-08T09:34:18;5.18;;;2.92;;
44248;SDS011;29923;48.718;9.272;2023-01-08T09:36:43;3.30;;;1.45;;
44248;SDS011;29923;48.718;9.272;2023-01-08T09:39:08;1.55;;;1.40;;
44248;SDS011;29923;48.718;9.272;2023-01-08T09:41:42;5.47;;;1.55;;
44248;SDS011;29923;48.718;9.272;2023-01-08T09:44:12;2.95;;;1.38;;
44248;SDS011;29923;48.718;9.272;2023-01-08T09:46:40;3.33;;;1.50;;
44248;SDS011;29923;48.718;9.272;2023-01-08T09:49:05;3.25;;;1.80;;
44248;SDS011;29923;48.718;9.272;2023-01-08T09:51:35;6.53;;;3.00;;
44248;SDS011;29923;48.718;9.272;2023-01-08T09:54:02;1.95;;;1.35;;
44248;SDS011;29923;48.718;9.272;2023-01-08T09:56:29;3.13;;;1.52;;
44248;SDS011;29923;48.718;9.272;2023-01-08T09:58:58;3.20;;;1.70;;
44248;SDS011;29923;48.718;9.272;2023-01-08T10:01:27;2.80;;;1.67;;
44248;SDS011;29923;48.718;9.272;2023-01-08T10:04:12;2.67;;;1.60;;
44248;SDS011;29923;48.718;9.272;2023-01-08T10:09:37;5.10;;;2.35;;
44248;SDS011;29923;48.718;9.272;2023-01-08T10:12:04;2.88;;;1.80;;
44248;SDS011;29923;48.718;9.272;2023-01-08T10:14:31;5.05;;;1.60;;
44248;SDS011;29923;48.718;9.272;2023-01-08T10:17:04;2.35;;;1.42;;
44248;SDS011;29923;48.718;9.272;2023-01-08T10:21:58;2.40;;;1.23;;
44248;SDS011;29923;48.718;9.272;2023-01-08T10:24:30;3.25;;;1.38;;
44248;SDS011;29923;48.718;9.272;2023-01-08T10:27:06;2.13;;;1.65;;
44248;SDS011;29923;48.718;9.272;2023-01-08T10:29:39;2.83;;;1.50;;
44248;SDS011;29923;48.718;9.272;2023-01-08T10:32:15;2.35;;;1.35;;
44248;SDS011;29923;48.718;9.272;2023-01-08T10:34:56;2.60;;;1.20;;
44248;SDS011;29923;48.718;9.272;2023-01-08T10:37:27;3.80;;;1.23;;
44248;SDS011;29923;48.718;9.272;2023-01-08T10:39:55;1.73;;;0.93;;
44248;SDS011;29923;48.718;9.272;2023-01-08T10:42:32;1.83;;;1.10;;
44248;SDS011;29923;48.718;9.272;2023-01-08T10:44:59;5.10;;;1.15;;
44248;SDS011;29923;48.718;9.272;2023-01-08T10:47:29;0.65;;;0.63;;
44248;SDS011;29923;48.718;9.272;2023-01-08T10:49:56;1.13;;;0.90;;
44248;SDS011;29923;48.718;9.272;2023-01-08T10:52:23;1.63;;;0.90;;
44248;SDS011;29923;48.718;9.272;2023-01-08T10:54:50;2.05;;;0.85;;
44248;SDS011;29923;48.718;9.272;2023-01-08T10:57:20;1.77;;;0.70;;
44248;SDS011;29923;48.718;9.272;2023-01-08T10:59:53;1.10;;;0.80;;
44248;SDS011;29923;48.718;9.272;2023-01-08T11:02:35;1.33;;;1.02;;
44248;SDS011;29923;48.718;9.272;2023-01-08T11:05:02;0.93;;;0.60;;
44248;SDS011;29923;48.718;9.272;2023-01-08T11:07:29;2.25;;;1.02;;
44248;SDS011;29923;48.718;9.272;2023-01-08T11:09:59;0.90;;;0.60;;
44248;SDS011;29923;48.718;9.272;2023-01-08T11:14:55;1.65;;;0.82;;
44248;SDS011;29923;48.718;9.272;2023-01-08T11:17:23;1.77;;;0.80;;
44248;SDS011;29923;48.718;9.272;2023-01-08T11:19:49;1.17;;;0.70;;
44248;SDS011;29923;48.718;9.272;2023-01-08T11:24:47;1.35;;;0.85;;
44248;SDS011;29923;48.718;9.272;2023-01-08T11:29:59;1.17;;;0.70;;
44248;SDS011;29923;48.718;9.272;2023-01-08T11:35:05;1.20;;;0.80;;
44248;SDS011;29923;48.718;9.272;2023-01-08T11:37:38;0.90;;;0.80;;
44248;SDS011;29923;48.718;9.272;2023-01-08T11:40:14;1.50;;;0.70;;
44248;SDS011;29923;48.718;9.272;2023-01-08T11:53:26;0.77;;;0.50;;
44248;SDS011;29923;48.718;9.272;2023-01-08T11:56:04;0.88;;;0.52;;
44248;SDS011;29923;48.718;9.272;2023-01-08T12:07:05;0.70;;;0.50;;
44248;SDS011;29923;48.718;9.272;2023-01-08T12:09:42;0.80;;;0.70;;
44248;SDS011;29923;48.718;9.272;2023-01-08T12:12:22;0.88;;;0.55;;
44248;SDS011;29923;48.718;9.272;2023-01-08T12:20:13;1.05;;;0.50;;
44248;SDS011;29923;48.718;9.272;2023-01-08T12:28:02;1.92;;;1.10;;
44248;SDS011;29923;48.718;9.272;2023-01-08T12:33:28;0.70;;;0.60;;
44248;SDS011;29923;48.718;9.272;2023-01-08T12:36:22;0.90;;;0.50;;
44248;SDS011;29923;48.718;9.272;2023-01-08T12:39:09;1.50;;;0.73;;
44248;SDS011;29923;48.718;9.272;2023-01-08T12:41:37;0.73;;;0.60;;
44248;SDS011;29923;48.718;9.272;2023-01-08T12:44:04;0.77;;;0.75;;
44248;SDS011;29923;48.718;9.272;2023-01-08T12:46:35;1.35;;;0.80;;
44248;SDS011;29923;48.718;9.272;2023-01-08T12:49:03;1.45;;;0.63;;
44248;SDS011;29923;48.718;9.272;2023-01-08T12:54:07;60.45;;;40.53;;
44248;SDS011;29923;48.718;9.272;2023-01-08T13:05:11;3.47;;;0.80;;
44248;SDS011;29923;48.718;9.272;2023-01-08T13:07:41;0.70;;;0.70;;
44248;SDS011;29923;48.718;9.272;2023-01-08T13:10:18;1.17;;;0.60;;
44248;SDS011;29923;48.718;9.272;2023-01-08T13:12:48;0.80;;;0.50;;
44248;SDS011;29923;48.718;9.272;2023-01-08T13:15:21;1.02;;;0.68;;
44248;SDS011;29923;48.718;9.272;2023-01-08T13:17:49;0.85;;;0.55;;
44248;SDS011;29923;48.718;9.272;2023-01-08T13:20:29;5.60;;;0.65;;
44248;SDS011;29923;48.718;9.272;2023-01-08T13:22:56;0.52;;;0.50;;
44248;SDS011;29923;48.718;9.272;2023-01-08T13:27:48;298.60;;;57.00;;
44248;SDS011;29923;48.718;9.272;2023-01-08T13:36:18;27.65;;;5.85;;
44248;SDS011;29923;48.718;9.272;2023-01-08T13:38:57;7.60;;;2.55;;
44248;SDS011;29923;48.718;9.272;2023-01-08T13:41:31;17.08;;;4.78;;
44248;SDS011;29923;48.718;9.272;2023-01-08T13:46:29;2.05;;;1.23;;
44248;SDS011;29923;48.718;9.272;2023-01-08T13:49:03;2.08;;;0.73;;
44248;SDS011;29923;48.718;9.272;2023-01-08T13:51:31;1.35;;;0.70;;
44248;SDS011;29923;48.718;9.272;2023-01-08T13:56:40;1.40;;;0.90;;
44248;SDS011;29923;48.718;9.272;2023-01-08T13:59:11;1.70;;;1.15;;
44248;SDS011;29923;48.718;9.272;2023-01-08T14:01:53;0.63;;;0.63;;
44248;SDS011;29923;48.718;9.272;2023-01-08T14:04:19;0.85;;;0.73;;
44248;SDS011;29923;48.718;9.272;2023-01-08T14:06:45;1.08;;;0.70;;
44248;SDS011;29923;48.718;9.272;2023-01-08T14:09:13;1.08;;;0.90;;
44248;SDS011;29923;48.718;9.272;2023-01-08T14:11:45;0.60;;;0.60;;
44248;SDS011;29923;48.718;9.272;2023-01-08T14:14:12;0.93;;;0.70;;
44248;SDS011;29923;48.718;9.272;2023-01-08T14:16:38;12.32;;;4.57;;
44248;SDS011;29923;48.718;9.272;2023-01-08T14:19:04;5.90;;;2.75;;
44248;SDS011;29923;48.718;9.272;2023-01-08T14:21:30;0.82;;;0.65;;
44248;SDS011;29923;48.718;9.272;2023-01-08T14:23:55;0.90;;;0.70;;
44248;SDS011;29923;48.718;9.272;2023-01-08T14:26:31;0.95;;;0.77;;
44248;SDS011;29923;48.718;9.272;2023-01-08T14:28:59;6.30;;;0.95;;
44248;SDS011;29923;48.718;9.272;2023-01-08T14:31:26;1.30;;;0.93;;
44248;SDS011;29923;48.718;9.272;2023-01-08T14:33:56;4.45;;;0.88;;
44248;SDS011;29923;48.718;9.272;2023-01-08T14:36:22;1.45;;;0.95;;
44248;SDS011;29923;48.718;9.272;2023-01-08T14:38:48;2.25;;;1.27;;
44248;SDS011;29923;48.718;9.272;2023-01-08T14:41:19;1.60;;;0.98;;
44248;SDS011;29923;48.718;9.272;2023-01-08T14:44:19;8.15;;;1.92;;
44248;SDS011;29923;48.718;9.272;2023-01-08T14:46:45;7.10;;;4.55;;
44248;SDS011;29923;48.718;9.272;2023-01-08T14:49:27;1.45;;;0.95;;
44248;SDS011;29923;48.718;9.272;2023-01-08T14:51:55;2.88;;;1.20;;
44248;SDS011;29923;48.718;9.272;2023-01-08T14:54:22;2.03;;;1.10;;
44248;SDS011;29923;48.718;9.272;2023-01-08T14:56:50;5.43;;;1.25;;
44248;SDS011;29923;48.718;9.272;2023-01-08T14:59:18;2.50;;;1.38;;
44248;SDS011;29923;48.718;9.272;2023-01-08T15:01:49;1.85;;;1.10;;
44248;SDS011;29923;48.718;9.272;2023-01-08T15:06:44;2.58;;;1.60;;
44248;SDS011;29923;48.718;9.272;2023-01-08T15:12:01;1.77;;;1.23;;
44248;SDS011;29923;48.718;9.272;2023-01-08T15:14:29;5.10;;;1.60;;
44248;SDS011;29923;48.718;9.272;2023-01-08T15:16:58;2.70;;;1.42;;
44248;SDS011;29923;48.718;9.272;2023-01-08T15:19:29;2.72;;;1.67;;
44248;SDS011;29923;48.718;9.272;2023-01-08T15:22:02;2.67;;;1.85;;
44248;SDS011;29923;48.718;9.272;2023-01-08T15:24:35;1.42;;;1.05;;
44248;SDS011;29923;48.718;9.272;2023-01-08T15:27:03;1.60;;;1.27;;
44248;SDS011;29923;48.718;9.272;2023-01-08T15:29:45;3.30;;;2.20;;
44248;SDS011;29923;48.718;9.272;2023-01-08T15:34:39;2.45;;;1.10;;
44248;SDS011;29923;48.718;9.272;2023-01-08T15:37:05;1.35;;;0.88;;
44248;SDS011;29923;48.718;9.272;2023-01-08T15:39:32;4.90;;;4.00;;
44248;SDS011;29923;48.718;9.272;2023-01-08T15:42:01;1.13;;;0.90;;
44248;SDS011;29923;48.718;9.272;2023-01-08T15:44:59;2.97;;;1.17;;
44248;SDS011;29923;48.718;9.272;2023-01-08T15:47:25;2.55;;;1.40;;
44248;SDS011;29923;48.718;9.272;2023-01-08T15:49:50;2.53;;;1.48;;
44248;SDS011;29923;48.718;9.272;2023-01-08T15:52:18;2.80;;;1.58;;
44248;SDS011;29923;48.718;9.272;2023-01-08T15:54:45;3.22;;;1.63;;
44248;SDS011;29923;48.718;9.272;2023-01-08T15:57:10;2.35;;;1.52;;
44248;SDS011;29923;48.718;9.272;2023-01-08T15:59:36;1.60;;;1.20;;
44248;SDS011;29923;48.718;9.272;2023-01-08T16:02:01;2.25;;;1.10;;
44248;SDS011;29923;48.718;9.272;2023-01-08T16:04:27;2.03;;;1.20;;
44248;SDS011;29923;48.718;9.272;2023-01-08T16:06:52;6.32;;;1.45;;
44248;SDS011;29923;48.718;9.272;2023-01-08T16:09:17;3.83;;;1.30;;
44248;SDS011;29923;48.718;9.272;2023-01-08T16:11:43;2.50;;;1.50;;
44248;SDS011;29923;48.718;9.272;2023-01-08T16:14:09;3.25;;;1.80;;